Time;durP1;ratioP1;P1;durP2;ratioP2;P2;SDS_P1;SDS_P2;PMS_P1;PMS_P2;Temp;Humidity;BMP_temperature;BMP_pressure;BME280_temperature;BME280_humidity;BME280_pressure;Samples;Min_cycle;Max_cycle;Signal;HPM_P1;HPM_P2
2023/12/26 00:01:24;;;;;;;;;1.00;1.00;;;;;12.98;60.18;101091.38;4999321;28;45323;-78
2023/12/26 00:03:49;;;;;;;;;6.25;3.00;;;;;12.94;60.13;101095.34;4997866;28;45386;-76
2023/12/26 00:06:20;;;;;;;;;3.00;1.50;;;;;12.75;60.16;101060.78;4997439;28;46112;-79
2023/12/26 00:08:46;;;;;;;;;5.00;4.75;;;;;13.06;60.27;101109.31;5011756;28;45459;-78
2023/12/26 00:11:12;;;;;;;;;2.75;1.50;;;;;13.04;60.30;101093.44;4996236;28;45387;-76
2023/12/26 00:13:37;;;;;;;;;1.50;1.50;;;;;13.10;60.09;101098.16;4988704;28;45547;-76
2023/12/26 00:16:02;;;;;;;;;0.75;0.75;;;;;13.02;59.99;101103.44;4998623;28;45499;-76
2023/12/26 00:18:28;;;;;;;;;1.50;0.75;;;;;13.05;60.57;101095.13;4999072;28;45498;-77
2023/12/26 00:20:54;;;;;;;;;3.00;1.00;;;;;13.03;60.05;101086.44;4991099;28;45449;-80
2023/12/26 00:23:20;;;;;;;;;1.50;1.50;;;;;13.02;60.19;101079.41;5000407;28;45710;-77
2023/12/26 00:25:46;;;;;;;;;3.75;1.75;;;;;13.07;60.07;101081.63;4998085;28;46065;-77
2023/12/26 00:28:13;;;;;;;;;2.50;1.25;;;;;13.02;59.99;101089.25;4989450;28;45383;-76
2023/12/26 00:30:39;;;;;;;;;6.75;2.00;;;;;13.00;59.78;101075.19;4998413;28;45355;-76
2023/12/26 00:33:05;;;;;;;;;3.00;0.50;;;;;13.03;60.05;101073.09;4998252;28;45315;-78
2023/12/26 00:35:30;;;;;;;;;2.75;1.75;;;;;12.82;59.89;101048.53;4996851;28;45252;-79
2023/12/26 00:37:58;;;;;;;;;3.00;1.00;;;;;12.98;60.04;101069.19;4995525;28;45567;-77
2023/12/26 00:40:23;;;;;;;;;3.50;2.25;;;;;12.95;59.56;101062.31;4997591;28;45509;-77
2023/12/26 00:42:49;;;;;;;;;2.75;0.50;;;;;12.93;59.63;101052.78;5011861;28;45518;-77
2023/12/26 00:45:14;;;;;;;;;0.25;0.25;;;;;12.93;59.45;101058.97;4996766;28;45564;-78
2023/12/26 00:47:39;;;;;;;;;5.75;1.75;;;;;13.04;59.41;101087.28;4992635;28;45574;-77
2023/12/26 00:50:05;;;;;;;;;3.00;1.50;;;;;13.06;59.26;101072.78;4992309;28;45563;-78
2023/12/26 00:52:32;;;;;;;;;1.75;0.50;;;;;13.04;59.50;101066.75;4997246;28;45466;-75
2023/12/26 00:54:58;;;;;;;;;3.75;1.75;;;;;13.06;59.24;101067.44;4995853;28;47709;-77
2023/12/26 00:57:24;;;;;;;;;2.50;0.50;;;;;12.54;59.56;100989.03;4995921;28;45612;-76
2023/12/26 00:59:49;;;;;;;;;2.50;2.50;;;;;13.10;59.60;101076.81;4995600;28;45486;-76
2023/12/26 01:02:14;;;;;;;;;1.67;1.67;;;;;13.11;59.57;101075.00;4996362;28;45350;-76
2023/12/26 01:04:40;;;;;;;;;2.00;1.50;;;;;13.02;59.40;101059.91;4996477;28;45879;-78
2023/12/26 01:07:06;;;;;;;;;2.25;0.50;;;;;13.07;59.44;101074.47;4996128;28;45407;-76
2023/12/26 01:09:31;;;;;;;;;4.67;2.33;;;;;13.02;59.34;101068.75;4996278;28;45628;-76
2023/12/26 01:11:57;;;;;;;;;4.33;2.33;;;;;11.82;59.65;100875.31;4996236;28;45505;-78
2023/12/26 01:14:22;;;;;;;;;1.50;1.50;;;;;12.92;59.71;101057.28;4996111;28;45610;-77
2023/12/26 01:16:47;;;;;;;;;2.00;2.00;;;;;12.83;60.14;101052.88;4996693;28;45344;-78
2023/12/26 01:19:13;;;;;;;;;4.50;0.50;;;;;12.75;60.38;101048.25;4996480;28;45740;-78
2023/12/26 01:21:39;;;;;;;;;0.50;0.50;;;;;12.61;60.63;101031.94;4996310;28;45661;-77
2023/12/26 01:24:05;;;;;;;;;3.00;1.00;;;;;12.68;60.81;101065.88;4995778;28;45633;-77
2023/12/26 01:26:30;;;;;;;;;5.50;1.00;;;;;12.62;61.11;101063.81;4993910;28;46104;-76
2023/12/26 01:28:56;;;;;;;;;1.50;1.50;;;;;12.34;61.23;101025.63;5008899;28;45411;-77
2023/12/26 01:31:22;;;;;;;;;4.75;1.75;;;;;12.58;61.70;101056.25;4996243;28;45344;-76
2023/12/26 01:33:47;;;;;;;;;1.67;1.00;;;;;12.64;61.63;101075.16;4995675;28;45437;-77
2023/12/26 01:36:12;;;;;;;;;4.25;1.25;;;;;12.47;61.56;101042.13;4995705;28;46959;-78
2023/12/26 01:38:38;;;;;;;;;2.00;1.00;;;;;12.58;61.86;101056.25;4996631;28;45464;-76
2023/12/26 01:41:03;;;;;;;;;7.25;3.00;;;;;12.68;61.90;101073.88;4996958;28;45604;-77
2023/12/26 01:43:28;;;;;;;;;3.75;2.75;;;;;12.46;61.47;101029.78;4995497;28;45555;-77
2023/12/26 01:45:59;;;;;;;;;3.33;2.33;;;;;12.73;61.65;101073.44;4994658;28;45383;-76
2023/12/26 01:48:27;;;;;;;;;3.00;2.00;;;;;12.37;61.79;101009.34;4995650;28;45322;-76
2023/12/26 01:50:52;;;;;;;;;3.00;2.00;;;;;12.41;61.47;101025.88;4996017;28;45539;-76
2023/12/26 01:53:18;;;;;;;;;3.00;2.25;;;;;12.60;61.65;101059.59;4994726;28;46327;-77
2023/12/26 01:55:43;;;;;;;;;4.00;2.00;;;;;12.27;62.02;101013.91;4995548;28;46292;-78
2023/12/26 01:58:09;;;;;;;;;2.00;2.00;;;;;12.57;62.11;101057.22;4995992;28;45574;-79
2023/12/26 02:00:35;;;;;;;;;2.00;1.67;;;;;12.57;61.63;101067.91;4995984;28;45584;-77
2023/12/26 02:03:00;;;;;;;;;4.00;2.33;;;;;12.39;61.91;101044.69;4996082;28;46068;-76
2023/12/26 02:05:26;;;;;;;;;2.33;2.00;;;;;12.48;62.09;101062.47;4994316;28;45442;-77
2023/12/26 02:07:53;;;;;;;;;3.00;3.00;;;;;12.35;62.58;101043.31;4988447;28;45438;-76
2023/12/26 02:10:18;;;;;;;;;1.75;1.00;;;;;12.57;62.29;101086.56;4996193;28;45577;-78
2023/12/26 02:12:44;;;;;;;;;4.00;1.00;;;;;12.56;62.51;101066.22;4994064;28;46276;-76
2023/12/26 02:15:10;;;;;;;;;4.00;2.00;;;;;12.56;62.43;101092.88;4995457;28;45533;-76
2023/12/26 02:17:36;;;;;;;;;2.00;2.00;;;;;12.40;62.64;101062.38;4995309;28;45458;-77
2023/12/26 02:20:03;;;;;;;;;2.67;1.67;;;;;12.54;62.63;101084.19;4995404;28;45360;-77
2023/12/26 02:22:29;;;;;;;;;1.00;1.00;;;;;12.26;62.58;101038.88;4994665;28;47197;-77
2023/12/26 02:24:54;;;;;;;;;4.00;1.67;;;;;12.37;62.69;101073.31;4995221;28;45305;-76
2023/12/26 02:27:24;;;;;;;;;1.00;1.00;;;;;12.42;62.88;101089.75;4994970;28;45471;-77
2023/12/26 02:29:52;;;;;;;;;3.00;2.00;;;;;12.40;62.90;101083.69;4996102;28;45361;-77
2023/12/26 02:32:23;;;;;;;;;4.00;2.33;;;;;12.15;63.26;101055.03;4995222;28;45735;-77
2023/12/26 02:34:50;;;;;;;;;3.00;3.00;;;;;12.30;63.74;101082.06;4994994;28;45245;-76
2023/12/26 02:37:16;;;;;;;;;2.25;0.25;;;;;11.99;63.31;101041.50;4995009;28;45491;-76
2023/12/26 02:39:43;;;;;;;;;2.33;1.33;;;;;12.33;63.90;101089.78;5009569;28;45595;-74
2023/12/26 02:42:12;;;;;;;;;4.00;2.33;;;;;12.23;63.49;101078.31;4994881;28;45412;-77
2023/12/26 02:44:38;;;;;;;;;1.00;1.00;;;;;12.19;63.73;101070.59;4994493;28;45430;-77
2023/12/26 02:47:03;;;;;;;;;4.00;1.33;;;;;12.28;63.76;101082.22;4994851;28;45538;-77
2023/12/26 02:49:29;;;;;;;;;3.00;1.00;;;;;12.31;63.52;101084.59;4994692;28;45423;-77
2023/12/26 02:51:54;;;;;;;;;1.67;1.67;;;;;12.34;64.05;101094.97;4985986;28;46051;-76
2023/12/26 02:54:19;;;;;;;;;4.00;0.00;;;;;11.90;63.93;101021.91;4999943;28;45477;-78
2023/12/26 02:56:46;;;;;;;;;3.00;1.33;;;;;12.31;64.04;101084.59;5004856;28;45545;-76
2023/12/26 02:59:11;;;;;;;;;4.33;2.00;;;;;12.33;64.03;101082.63;5002247;28;45637;-77
2023/12/26 03:01:36;;;;;;;;;2.33;2.33;;;;;12.33;63.66;101073.78;4998041;28;46001;-78
2023/12/26 03:04:02;;;;;;;;;2.00;1.00;;;;;12.38;63.86;101083.00;4996139;28;49538;-76
2023/12/26 03:06:27;;;;;;;;;2.00;2.00;;;;;12.38;64.35;101091.00;4994627;28;45391;-76
2023/12/26 03:08:52;;;;;;;;;2.67;1.67;;;;;12.26;64.23;101054.88;4997817;28;45538;-76
2023/12/26 03:11:18;;;;;;;;;2.67;2.00;;;;;12.33;64.12;101071.94;4994468;28;45446;-76
2023/12/26 03:13:43;;;;;;;;;2.67;1.33;;;;;12.43;64.26;101094.09;4994163;28;45603;-76
2023/12/26 03:16:08;;;;;;;;;1.33;1.33;;;;;12.45;64.45;101091.28;4992341;28;45465;-76
2023/12/26 03:18:34;;;;;;;;;5.50;2.00;;;;;12.45;63.93;101092.13;4989233;28;45484;-76
2023/12/26 03:20:59;;;;;;;;;3.00;1.67;;;;;12.03;63.84;101026.94;4993922;28;46102;-75
2023/12/26 03:23:24;;;;;;;;;1.33;1.33;;;;;12.37;63.91;101070.66;4993907;28;45447;-76
2023/12/26 03:25:50;;;;;;;;;5.00;1.50;;;;;12.46;63.93;101093.78;4994342;28;45452;-78
2023/12/26 03:28:16;;;;;;;;;3.33;3.00;;;;;12.46;64.34;101096.47;4993856;28;45609;-78
2023/12/26 03:30:41;;;;;;;;;3.33;2.00;;;;;12.54;64.12;101100.19;4994858;28;46522;-77
2023/12/26 03:33:06;;;;;;;;;2.33;2.33;;;;;11.91;63.85;100996.09;4998718;28;45382;-77
2023/12/26 03:35:32;;;;;;;;;3.00;2.67;;;;;12.44;63.56;101085.09;5000113;28;45280;-76
2023/12/26 03:37:57;;;;;;;;;2.33;1.67;;;;;12.37;64.29;101078.66;4989121;28;45361;-78
2023/12/26 03:40:23;;;;;;;;;2.00;2.00;;;;;12.46;64.38;101103.63;4993082;28;45508;-77
2023/12/26 03:42:48;;;;;;;;;2.67;1.33;;;;;12.40;64.22;101086.34;4993094;28;45496;-76
2023/12/26 03:45:13;;;;;;;;;4.00;2.00;;;;;12.41;64.58;101079.19;4993318;28;45264;-76
2023/12/26 03:47:39;;;;;;;;;2.33;2.33;;;;;12.50;64.32;101083.66;5008854;28;45579;-76
2023/12/26 03:50:10;;;;;;;;;4.00;2.50;;;;;12.49;64.53;101088.16;4993539;28;46347;-77
2023/12/26 03:52:36;;;;;;;;;4.00;3.00;;;;;12.52;64.60;101083.50;4993439;28;45378;-77
2023/12/26 03:55:02;;;;;;;;;3.25;1.75;;;;;12.45;64.57;101077.94;4994173;28;45622;-76
2023/12/26 03:57:27;;;;;;;;;3.33;2.00;;;;;12.24;64.51;101026.69;4977060;28;45501;-75
2023/12/26 03:59:53;;;;;;;;;5.00;4.00;;;;;12.41;64.68;101061.41;4992774;28;47305;-77
2023/12/26 04:02:18;;;;;;;;;3.67;2.00;;;;;12.44;64.81;101068.25;4992711;28;45239;-74
2023/12/26 04:04:44;;;;;;;;;2.00;1.67;;;;;12.26;65.09;101052.22;4993758;28;45699;-77
2023/12/26 04:07:10;;;;;;;;;1.50;1.50;;;;;12.45;64.98;101092.13;4993945;28;45332;-76
2023/12/26 04:09:35;;;;;;;;;6.00;5.67;;;;;12.30;64.89;101056.25;4993112;28;45356;-79
2023/12/26 04:12:01;;;;;;;;;3.00;2.00;;;;;12.43;64.90;101078.09;4993774;28;45442;-78
2023/12/26 04:14:26;;;;;;;;;3.00;1.67;;;;;12.31;65.22;101073.94;4992838;28;45525;-76
2023/12/26 04:16:51;;;;;;;;;4.33;3.00;;;;;12.45;64.97;101096.59;4988593;28;45431;-76
2023/12/26 04:19:17;;;;;;;;;2.00;1.00;;;;;12.48;65.26;101091.81;4989392;28;47089;-76
2023/12/26 04:21:42;;;;;;;;;2.00;2.00;;;;;12.47;65.38;101108.81;4993092;28;45486;-75
2023/12/26 04:24:08;;;;;;;;;3.00;3.00;;;;;12.46;65.19;101101.78;4992478;28;45553;-76
2023/12/26 04:26:36;;;;;;;;;3.75;3.75;;;;;12.37;65.09;101084.00;4993511;28;45454;-77
2023/12/26 04:29:01;;;;;;;;;3.50;1.50;;;;;12.55;65.11;101118.72;4992573;28;45314;-76
2023/12/26 04:31:26;;;;;;;;;2.50;1.00;;;;;12.43;65.17;101099.41;4993599;28;45622;-79
2023/12/26 04:33:52;;;;;;;;;4.33;3.00;;;;;12.47;65.85;101116.81;4994151;28;45434;-76
2023/12/26 04:36:17;;;;;;;;;3.00;1.33;;;;;12.37;65.15;101097.31;4996677;28;45342;-76
2023/12/26 04:38:43;;;;;;;;;6.00;2.00;;;;;12.46;66.06;101119.63;5003160;28;45450;-76
2023/12/26 04:41:11;;;;;;;;;5.00;5.00;;;;;12.48;65.58;101122.97;5004810;28;45393;-77
2023/12/26 04:43:37;;;;;;;;;2.00;2.00;;;;;12.13;65.74;101065.84;4990720;28;45645;-76
2023/12/26 04:46:03;;;;;;;;;3.33;2.00;;;;;12.28;65.66;101098.22;4992750;28;45616;-77
2023/12/26 04:48:28;;;;;;;;;3.33;2.00;;;;;12.38;66.05;101122.16;4995724;28;46844;-76
2023/12/26 04:50:54;;;;;;;;;4.67;1.67;;;;;12.19;65.83;101070.59;4997220;28;45396;-78
2023/12/26 04:53:19;;;;;;;;;1.67;1.67;;;;;12.44;66.00;101122.44;4995594;28;45530;-78
2023/12/26 04:55:44;;;;;;;;;3.75;2.50;;;;;12.35;66.23;101109.97;4996497;28;45513;-77
2023/12/26 04:58:10;;;;;;;;;2.00;2.00;;;;;12.29;66.38;101104.38;4995624;28;46179;-77
2023/12/26 05:00:35;;;;;;;;;4.00;1.00;;;;;12.25;66.57;101098.50;4996463;28;45478;-76
2023/12/26 05:03:00;;;;;;;;;4.00;2.00;;;;;12.32;66.66;101120.94;4995504;28;45368;-76
2023/12/26 05:05:26;;;;;;;;;2.67;2.67;;;;;12.15;66.93;101093.19;4996457;28;45506;-76
2023/12/26 05:07:51;;;;;;;;;3.00;1.67;;;;;12.37;66.62;101126.66;5010729;28;46175;-78
2023/12/26 05:10:17;;;;;;;;;5.33;2.33;;;;;12.21;66.62;101106.94;4995461;28;45439;-76
2023/12/26 05:12:42;;;;;;;;;5.00;2.67;;;;;12.28;66.89;101121.38;4995096;28;45986;-78
2023/12/26 05:15:08;;;;;;;;;3.00;2.00;;;;;12.41;66.58;101133.41;4996110;28;45283;-78
2023/12/26 05:17:34;;;;;;;;;4.33;3.00;;;;;12.43;66.81;101142.09;4996373;28;46091;-77
2023/12/26 05:20:01;;;;;;;;;2.00;2.00;;;;;12.38;66.54;101132.81;4995415;28;45366;-78
2023/12/26 05:22:26;;;;;;;;;3.00;3.00;;;;;12.42;66.95;101147.56;4996340;28;45429;-77
2023/12/26 05:24:51;;;;;;;;;4.33;2.00;;;;;12.40;67.31;101147.69;5007126;28;45449;-78
2023/12/26 05:27:17;;;;;;;;;3.50;2.00;;;;;12.42;67.15;101155.56;4995938;28;45348;-78
2023/12/26 05:29:43;;;;;;;;;6.00;4.00;;;;;12.30;66.85;101130.91;4996146;28;45323;-79
2023/12/26 05:32:09;;;;;;;;;2.67;2.67;;;;;12.42;67.09;101153.75;4997305;28;45312;-75
2023/12/26 05:34:34;;;;;;;;;2.00;2.00;;;;;12.48;66.73;101162.97;4999223;28;45410;-77
2023/12/26 05:37:00;;;;;;;;;3.00;3.00;;;;;12.46;66.87;101157.78;4996587;28;46310;-78
2023/12/26 05:39:25;;;;;;;;;5.33;3.00;;;;;12.30;67.09;101146.91;4987650;28;45544;-76
2023/12/26 05:41:51;;;;;;;;;5.00;2.00;;;;;12.30;67.19;101156.72;4996000;28;45382;-76
2023/12/26 05:44:16;;;;;;;;;3.67;2.67;;;;;12.24;67.31;101149.31;5003220;28;45355;-78
2023/12/26 05:46:43;;;;;;;;;5.00;2.00;;;;;12.40;67.57;101179.69;4995878;28;45975;-77
2023/12/26 05:49:08;;;;;;;;;2.00;2.00;;;;;12.42;67.43;101175.06;4997387;28;45404;-77
2023/12/26 05:51:34;;;;;;;;;4.00;3.00;;;;;12.32;67.52;101170.75;4998807;28;45625;-77
2023/12/26 05:53:59;;;;;;;;;4.33;2.00;;;;;12.32;67.87;101184.06;4997208;28;45465;-77
2023/12/26 05:56:25;;;;;;;;;5.25;3.00;;;;;12.30;68.13;101175.38;5012935;28;48302;-76
2023/12/26 05:58:50;;;;;;;;;5.00;2.00;;;;;12.29;67.26;101182.53;4995113;28;45503;-77
2023/12/26 06:01:15;;;;;;;;;4.00;4.00;;;;;12.29;67.48;101171.03;4995736;28;45406;-78
2023/12/26 06:03:41;;;;;;;;;5.67;3.00;;;;;12.43;67.96;101199.91;5011889;28;45641;-78
2023/12/26 06:06:13;;;;;;;;;1.67;1.67;;;;;12.37;67.54;101187.13;4996372;28;45355;-78
2023/12/26 06:08:40;;;;;;;;;3.00;3.00;;;;;12.42;67.69;101203.56;4988015;28;45556;-76
2023/12/26 06:11:05;;;;;;;;;4.25;2.50;;;;;12.39;68.35;101204.66;4995292;28;45497;-77
2023/12/26 06:13:31;;;;;;;;;3.67;2.67;;;;;12.42;68.27;101209.75;4994758;28;45391;-77
2023/12/26 06:15:56;;;;;;;;;1.75;1.00;;;;;12.33;67.99;101191.94;4996432;28;45830;-77
2023/12/26 06:18:21;;;;;;;;;2.00;2.00;;;;;12.34;68.13;101200.75;4996398;28;45513;-76
2023/12/26 06:20:47;;;;;;;;;6.50;2.00;;;;;12.45;68.75;101208.59;5006994;28;45663;-77
2023/12/26 06:23:12;;;;;;;;;2.75;1.75;;;;;12.48;68.72;101206.50;5020612;28;45724;-77
2023/12/26 06:25:37;;;;;;;;;3.00;3.00;;;;;12.46;69.34;101211.13;4995839;28;45509;-77
2023/12/26 06:28:04;;;;;;;;;4.50;2.75;;;;;12.45;70.02;101201.44;4994674;28;45759;-76
2023/12/26 06:30:29;;;;;;;;;7.00;4.00;;;;;12.32;69.87;101182.25;4995023;28;45645;-78
2023/12/26 06:32:55;;;;;;;;;3.25;2.25;;;;;12.19;70.84;101166.56;4996873;28;45589;-77
2023/12/26 06:35:21;;;;;;;;;5.75;4.00;;;;;12.35;70.75;101200.63;4994869;28;46058;-77
2023/12/26 06:37:46;;;;;;;;;4.00;2.00;;;;;12.31;71.03;101185.91;5003470;28;45478;-78
2023/12/26 06:40:11;;;;;;;;;6.00;2.33;;;;;12.32;71.31;101195.56;5017318;28;45634;-79
2023/12/26 06:42:38;;;;;;;;;5.50;2.50;;;;;12.17;71.55;101184.53;5002164;28;45563;-77
2023/12/26 06:45:04;;;;;;;;;2.00;2.00;;;;;12.29;71.71;101193.22;4997751;28;45577;-78
2023/12/26 06:47:29;;;;;;;;;2.00;2.00;;;;;12.13;71.72;101182.28;4994990;28;45629;-77
2023/12/26 06:49:55;;;;;;;;;3.00;2.67;;;;;12.20;72.16;101215.38;4995480;28;45351;-78
2023/12/26 06:52:20;;;;;;;;;2.50;2.50;;;;;12.12;71.82;101207.25;4995158;28;45533;-78
2023/12/26 06:54:45;;;;;;;;;3.00;2.50;;;;;11.99;72.21;101190.72;4987355;28;45470;-77
2023/12/26 06:57:17;;;;;;;;;5.00;3.00;;;;;12.20;71.97;101231.38;4995182;28;45435;-76
2023/12/26 06:59:44;;;;;;;;;3.00;3.00;;;;;12.15;72.57;101238.97;4993574;28;45417;-76
2023/12/26 07:02:09;;;;;;;;;6.00;3.33;;;;;11.91;72.60;101209.25;4995324;28;45494;-77
2023/12/26 07:04:34;;;;;;;;;3.33;3.00;;;;;12.18;72.37;101238.66;4994931;28;46092;-77
2023/12/26 07:07:00;;;;;;;;;4.00;2.00;;;;;11.97;72.67;101206.00;4994662;28;45543;-76
2023/12/26 07:09:25;;;;;;;;;4.67;3.00;;;;;12.19;72.24;101243.03;5002314;28;45652;-75
2023/12/26 07:11:51;;;;;;;;;4.25;4.25;;;;;12.12;72.16;101223.25;4996733;28;45241;-76
2023/12/26 07:14:16;;;;;;;;;5.67;3.00;;;;;12.23;71.90;101249.78;4995371;28;46132;-78
2023/12/26 07:16:42;;;;;;;;;3.50;3.00;;;;;12.12;72.08;101237.44;4995824;28;45570;-77
2023/12/26 07:19:07;;;;;;;;;2.75;2.75;;;;;12.18;71.46;101252.84;4997645;28;45454;-77
2023/12/26 07:21:32;;;;;;;;;2.67;2.00;;;;;12.14;71.56;101237.28;4996534;28;45366;-77
2023/12/26 07:23:58;;;;;;;;;3.00;3.00;;;;;12.15;71.52;101247.81;4984561;28;46191;-77
2023/12/26 07:26:23;;;;;;;;;3.67;3.00;;;;;12.27;71.61;101274.31;4993411;28;45510;-77
2023/12/26 07:28:48;;;;;;;;;7.67;3.67;;;;;12.10;71.19;101257.22;4994071;28;45583;-77
2023/12/26 07:31:23;;;;;;;;;3.33;2.33;;;;;12.18;71.75;101282.16;4993903;28;45477;-75
2023/12/26 07:33:51;;;;;;;;;2.00;2.00;;;;;12.20;71.23;101282.03;4994603;28;45558;-76
2023/12/26 07:36:16;;;;;;;;;3.75;2.50;;;;;12.26;71.41;101284.16;4994607;28;45343;-77
2023/12/26 07:38:42;;;;;;;;;3.33;3.00;;;;;12.17;71.25;101274.31;4994451;28;45415;-77
2023/12/26 07:41:07;;;;;;;;;1.33;1.33;;;;;12.29;71.04;101299.84;4995750;28;45562;-77
2023/12/26 07:43:33;;;;;;;;;5.67;3.33;;;;;12.22;70.82;101308.56;4992809;28;46147;-78
2023/12/26 07:45:58;;;;;;;;;3.67;3.67;;;;;12.23;71.32;101295.09;4993814;28;45386;-77
2023/12/26 07:48:23;;;;;;;;;4.00;3.00;;;;;12.24;71.51;101307.44;4995097;28;45383;-79
2023/12/26 07:50:49;;;;;;;;;2.50;1.00;;;;;12.22;71.38;101303.22;4995899;28;45378;-78
2023/12/26 07:53:15;;;;;;;;;2.25;2.25;;;;;11.99;71.74;101281.31;4996694;28;45610;-78
2023/12/26 07:55:41;;;;;;;;;2.75;1.75;;;;;12.32;71.23;101336.06;4993889;28;45420;-77
2023/12/26 07:58:07;;;;;;;;;6.33;4.33;;;;;12.17;71.64;101307.13;4985965;28;45320;-77
2023/12/26 08:00:34;;;;;;;;;2.33;2.33;;;;;12.30;71.54;101332.69;4986230;28;45426;-77
2023/12/26 08:03:00;;;;;;;;;3.00;1.00;;;;;12.07;71.59;101294.81;4990936;28;45596;-78
2023/12/26 08:05:25;;;;;;;;;3.00;1.00;;;;;12.34;71.51;101345.59;5000098;28;45327;-77
2023/12/26 08:07:51;;;;;;;;;6.67;4.33;;;;;12.22;71.21;101312.06;4991468;28;45627;-77
2023/12/26 08:10:16;;;;;;;;;4.33;1.33;;;;;12.45;71.09;101349.94;4995135;28;45454;-78
2023/12/26 08:12:42;;;;;;;;;4.33;3.67;;;;;12.48;70.87;101358.50;4997706;28;45433;-77
2023/12/26 08:15:09;;;;;;;;;2.00;2.00;;;;;12.48;71.32;101363.00;4997970;28;45478;-77
2023/12/26 08:17:34;;;;;;;;;3.67;3.67;;;;;12.47;71.61;101362.16;5012119;28;45474;-79
2023/12/26 08:20:00;;;;;;;;;2.50;2.50;;;;;12.44;71.47;101361.59;4997172;28;45400;-79
2023/12/26 08:22:25;;;;;;;;;2.00;2.00;;;;;12.41;71.98;101384.06;4997816;28;46252;-79
2023/12/26 08:24:50;;;;;;;;;2.00;1.00;;;;;12.34;71.88;101358.91;4997009;28;45367;-79
2023/12/26 08:27:18;;;;;;;;;6.33;3.00;;;;;12.42;71.43;101380.41;4997322;28;45314;-78
2023/12/26 08:29:43;;;;;;;;;2.00;1.67;;;;;12.45;71.39;101374.78;4997344;28;45442;-77
2023/12/26 08:32:08;;;;;;;;;2.00;2.00;;;;;12.40;71.77;101369.00;4997185;28;45501;-77
2023/12/26 08:34:34;;;;;;;;;1.00;1.00;;;;;12.05;71.66;101321.59;4997164;28;45948;-79
2023/12/26 08:36:59;;;;;;;;;1.33;1.00;;;;;12.49;71.23;101397.53;4998324;28;45921;-77
2023/12/26 08:39:24;;;;;;;;;4.00;4.00;;;;;12.05;71.28;101318.94;4999061;28;45427;-76
2023/12/26 08:41:50;;;;;;;;;4.67;2.33;;;;;12.44;71.70;101388.28;4998313;28;45513;-79
2023/12/26 08:44:15;;;;;;;;;3.75;2.50;;;;;12.52;71.48;101406.22;4997515;28;45446;-78
2023/12/26 08:46:40;;;;;;;;;4.00;3.00;;;;;12.40;71.83;101397.50;4998552;28;45539;-78
2023/12/26 08:49:06;;;;;;;;;4.00;2.00;;;;;12.48;71.81;101406.50;4996226;28;45318;-78
2023/12/26 08:51:36;;;;;;;;;3.67;3.67;;;;;12.47;71.92;101403.97;4996851;28;47729;-78
2023/12/26 08:54:02;;;;;;;;;2.67;2.00;;;;;12.49;72.30;101405.53;4996986;28;45372;-78
2023/12/26 08:56:28;;;;;;;;;12.50;11.50;;;;;12.39;72.68;101386.00;4997296;28;45501;-79
2023/12/26 08:58:53;;;;;;;;;2.00;2.00;;;;;12.47;72.84;101415.50;4997015;28;45485;-79
2023/12/26 09:01:18;;;;;;;;;7.67;5.33;;;;;12.53;72.95;101407.91;4996486;28;45477;-79
2023/12/26 09:03:44;;;;;;;;;1.00;1.00;;;;;12.33;73.45;101394.56;4997209;28;45403;-78
2023/12/26 09:06:10;;;;;;;;;4.67;1.33;;;;;12.46;74.16;101408.47;4995144;28;45498;-76
2023/12/26 09:08:36;;;;;;;;;1.33;1.33;;;;;12.56;73.89;101429.81;4989087;28;46258;-78
2023/12/26 09:11:01;;;;;;;;;5.67;4.00;;;;;12.48;74.16;101438.50;4996649;28;45446;-80
2023/12/26 09:13:29;;;;;;;;;5.00;3.00;;;;;12.60;74.50;101451.69;4988531;28;45343;-79
2023/12/26 09:15:54;;;;;;;;;3.67;2.00;;;;;12.39;74.19;101417.16;4995289;28;45480;-78
2023/12/26 09:18:21;;;;;;;;;4.50;1.50;;;;;12.55;74.56;101453.94;4997400;28;45627;-79
2023/12/26 09:20:47;;;;;;;;;5.00;4.00;;;;;12.63;74.10;101462.13;4997908;28;46030;-78
2023/12/26 09:23:12;;;;;;;;;5.67;4.00;;;;;12.55;74.02;101451.28;4996339;28;45594;-76
2023/12/26 09:25:38;;;;;;;;;2.00;2.00;;;;;12.48;74.15;101451.84;4996841;28;45519;-79
2023/12/26 09:28:03;;;;;;;;;3.00;3.00;;;;;12.46;74.27;101455.63;4998151;28;45600;-79
2023/12/26 09:30:29;;;;;;;;;3.33;2.67;;;;;12.48;74.71;101465.19;4995590;28;46512;-79
2023/12/26 09:32:54;;;;;;;;;2.50;1.50;;;;;12.48;74.60;101459.84;4994467;28;45458;-79
2023/12/26 09:35:19;;;;;;;;;5.00;2.50;;;;;12.45;74.46;101457.47;4996644;28;45526;-76
2023/12/26 09:37:44;;;;;;;;;4.00;2.67;;;;;12.59;75.12;101487.34;4997403;28;45371;-79
2023/12/26 09:40:12;;;;;;;;;5.33;3.67;;;;;12.55;75.20;101491.28;4996259;28;50187;-79
2023/12/26 09:42:37;;;;;;;;;6.67;3.67;;;;;12.49;75.07;101482.88;4996006;28;45372;-79
2023/12/26 09:45:04;;;;;;;;;2.33;2.00;;;;;12.61;74.66;101504.06;4995849;28;45362;-77
2023/12/26 09:47:31;;;;;;;;;8.67;3.33;;;;;12.51;75.24;101492.56;4995780;28;45617;-76
2023/12/26 09:49:58;;;;;;;;;9.33;5.00;;;;;12.63;75.17;101510.13;4995987;28;45411;-78
2023/12/26 09:52:25;;;;;;;;;8.00;8.00;;;;;12.72;74.71;101520.81;4998402;28;44924;-78
2023/12/26 09:54:51;;;;;;;;;2.67;2.67;;;;;12.72;74.47;101526.13;4996355;28;45738;-76
2023/12/26 09:57:19;;;;;;;;;4.33;3.00;;;;;12.62;74.48;101493.28;4996251;28;45288;-78
2023/12/26 09:59:47;;;;;;;;;3.00;3.00;;;;;12.80;74.63;101522.75;4995874;28;46367;-78
2023/12/26 10:02:13;;;;;;;;;5.00;3.33;;;;;12.74;74.01;101516.16;4994426;28;45563;-76
2023/12/26 10:04:39;;;;;;;;;3.00;2.67;;;;;12.69;74.24;101510.41;4995863;28;45524;-78
2023/12/26 10:07:06;;;;;;;;;4.00;3.00;;;;;12.44;74.03;101494.94;4996659;28;45486;-78
2023/12/26 10:09:32;;;;;;;;;0.75;0.75;;;;;12.79;73.93;101548.59;4994620;28;46352;-78
2023/12/26 10:11:57;;;;;;;;;2.33;1.00;;;;;12.84;73.98;101550.88;4996291;28;45430;-76
2023/12/26 10:14:30;;;;;;;;;4.33;1.67;;;;;12.72;74.17;101535.97;4996302;28;45521;-79
2023/12/26 10:16:57;;;;;;;;;2.67;1.67;;;;;12.80;73.75;101550.28;4998123;28;45236;-79
2023/12/26 10:19:23;;;;;;;;;3.33;2.33;;;;;12.69;74.09;101536.25;5005603;28;45663;-77
2023/12/26 10:21:55;;;;;;;;;2.00;0.33;;;;;12.80;74.04;101549.44;4990593;28;45671;-76
2023/12/26 10:24:21;;;;;;;;;2.67;2.00;;;;;12.83;73.57;101556.34;4996154;28;45557;-78
2023/12/26 10:26:47;;;;;;;;;1.67;1.67;;;;;12.89;73.55;101553.97;4995207;28;45364;-76
2023/12/26 10:29:14;;;;;;;;;0.33;0.33;;;;;12.96;73.47;101541.75;4995546;28;46148;-77
2023/12/26 10:31:41;;;;;;;;;2.00;1.00;;;;;12.79;73.82;101516.59;4998736;28;45462;-78
2023/12/26 10:34:14;;;;;;;;;3.67;3.00;;;;;12.94;73.48;101541.03;4991219;28;45359;-79
2023/12/26 10:36:44;;;;;;;;;3.33;1.33;;;;;12.67;73.40;101496.38;4991166;28;45295;-77
2023/12/26 10:39:13;;;;;;;;;3.25;2.25;;;;;12.80;73.29;101528.94;4996082;28;46413;-76
2023/12/26 10:41:48;;;;;;;;;1.25;1.25;;;;;13.06;73.03;101561.28;4989967;28;45529;-78
2023/12/26 10:44:15;;;;;;;;;2.75;1.50;;;;;12.29;72.92;101433.16;4996851;28;45517;-79
2023/12/26 10:46:42;;;;;;;;;1.25;1.25;;;;;13.02;73.40;101549.22;5004415;28;45480;-77
2023/12/26 10:49:10;;;;;;;;;0.50;0.50;;;;;12.69;73.30;101493.56;5003212;28;45505;-77
2023/12/26 10:51:45;;;;;;;;;1.50;0.50;;;;;12.84;73.34;101523.34;4998614;28;45687;-79
2023/12/26 10:54:24;;;;;;;;;2.75;1.25;;;;;12.93;73.38;101552.69;4995876;28;45346;-78
2023/12/26 10:56:50;;;;;;;;;4.50;4.50;;;;;13.01;73.28;101542.19;4998977;28;45550;-77
2023/12/26 13:51:26;;;;;;;;;2.00;1.00;;;;;13.78;71.64;101511.00;5007662;28;45433;-80
2023/12/26 13:53:52;;;;;;;;;2.50;1.75;;;;;13.74;71.19;101502.44;4994926;28;46149;-78
2023/12/26 13:56:21;;;;;;;;;3.25;3.25;;;;;13.49;71.66;101474.53;4996051;28;45918;-78
2023/12/26 13:58:46;;;;;;;;;6.25;5.00;;;;;13.37;71.44;101462.31;5000979;28;45541;-78
2023/12/26 14:01:16;;;;;;;;;3.00;3.00;;;;;13.72;71.78;101524.94;5002188;28;45571;-79
2023/12/26 14:03:49;;;;;;;;;2.00;1.75;;;;;13.67;71.66;101533.41;4998644;28;45404;-77
2023/12/26 14:06:14;;;;;;;;;3.50;2.75;;;;;13.58;71.70;101507.53;5002678;28;45408;-77
2023/12/26 14:08:40;;;;;;;;;4.25;1.75;;;;;13.64;72.09;101520.34;5001231;28;45394;-78
2023/12/26 14:11:05;;;;;;;;;1.75;1.75;;;;;13.56;72.54;101526.41;5001581;28;45355;-78